Time;durP1;ratioP1;P1;durP2;ratioP2;P2;SDS_P1;SDS_P2;PMS_P1;PMS_P2;Temp;Humidity;BMP_temperature;BMP_pressure;BME280_temperature;BME280_humidity;BME280_pressure;Samples;Min_cycle;Max_cycle;Signal;HPM_P1;HPM_P2
2023/11/21 00:01:35;;;;;;;36.30;20.50;;;;;;;-128.00;-1.00;-1.00;107085;1248;1002173;-63
2023/11/21 00:04:02;;;;;;;32.50;18.80;;;;;;;-128.00;-1.00;-1.00;106965;1248;1002090;-60
2023/11/21 00:06:30;;;;;;;31.70;16.90;;;;;;;-128.00;-1.00;-1.00;107072;1248;1002786;-61
2023/11/21 00:08:58;;;;;;;25.80;16.00;;;;;;;-128.00;-1.00;-1.00;107130;1248;1002728;-61
2023/11/21 00:11:25;;;;;;;25.40;14.20;;;;;;;-128.00;-1.00;-1.00;107092;1248;1002183;-64
2023/11/21 00:13:52;;;;;;;28.40;15.70;;;;;;;-128.00;-1.00;-1.00;107085;1248;1002287;-61
2023/11/21 00:16:22;;;;;;;26.80;14.90;;;;;;;-128.00;-1.00;-1.00;107071;1248;1002383;-61
2023/11/21 00:18:51;;;;;;;28.20;16.30;;;;;;;-128.00;-1.00;-1.00;107051;1248;1010326;-61
2023/11/21 00:21:18;;;;;;;24.30;14.30;;;;;;;-128.00;-1.00;-1.00;107039;1248;1011243;-61
2023/11/21 00:23:45;;;;;;;40.40;19.00;;;;;;;-128.00;-1.00;-1.00;107142;1248;1002101;-60
2023/11/21 00:26:14;;;;;;;40.20;20.60;;;;;;;-128.00;-1.00;-1.00;107056;1248;1002334;-60
2023/11/21 00:28:43;;;;;;;42.10;21.30;;;;;;;-128.00;-1.00;-1.00;107029;1248;1012917;-59
2023/11/21 00:31:11;;;;;;;35.60;19.70;;;;;;;-128.00;-1.00;-1.00;107105;1248;1002591;-61
2023/11/21 00:33:39;;;;;;;45.30;20.80;;;;;;;-128.00;-1.00;-1.00;107062;1248;1010925;-61
2023/11/21 00:36:09;;;;;;;31.00;19.50;;;;;;;-128.00;-1.00;-1.00;107033;1248;1002132;-62
2023/11/21 00:38:39;;;;;;;33.30;19.10;;;;;;;-128.00;-1.00;-1.00;107044;1248;1012479;-61
2023/11/21 00:41:07;;;;;;;34.50;18.10;;;;;;;-128.00;-1.00;-1.00;106985;1248;1012959;-61
2023/11/21 00:43:35;;;;;;;33.30;19.10;;;;;;;-128.00;-1.00;-1.00;107097;1248;1002444;-61
2023/11/21 00:46:07;;;;;;;36.70;20.90;;;;;;;-128.00;-1.00;-1.00;107090;1248;1002389;-61
2023/11/21 00:48:35;;;;;;;35.50;18.60;;;;;;;-128.00;-1.00;-1.00;107054;1250;1013022;-63
2023/11/21 00:51:02;;;;;;;20.70;12.30;;;;;;;-128.00;-1.00;-1.00;106847;1252;1002461;-60
2023/11/21 00:53:30;;;;;;;27.60;14.30;;;;;;;-128.00;-1.00;-1.00;106713;1250;1002289;-61
2023/11/21 00:55:57;;;;;;;22.30;14.00;;;;;;;-128.00;-1.00;-1.00;106895;1250;1002341;-60
2023/11/21 00:58:25;;;;;;;26.30;14.80;;;;;;;-128.00;-1.00;-1.00;106957;1249;1002241;-60
2023/11/21 01:00:53;;;;;;;24.40;15.80;;;;;;;-128.00;-1.00;-1.00;106976;1250;1002302;-62
2023/11/21 01:03:20;;;;;;;24.50;14.60;;;;;;;-128.00;-1.00;-1.00;106912;1250;1002320;-59
2023/11/21 01:05:50;;;;;;;26.30;15.50;;;;;;;-128.00;-1.00;-1.00;106992;1250;1002510;-60
2023/11/21 01:08:17;;;;;;;30.60;17.40;;;;;;;-128.00;-1.00;-1.00;106913;1250;1009786;-64
2023/11/21 01:10:45;;;;;;;38.30;21.00;;;;;;;-128.00;-1.00;-1.00;106916;1250;1002390;-62
2023/11/21 01:13:15;;;;;;;33.60;19.00;;;;;;;-128.00;-1.00;-1.00;106958;1250;1002437;-63
2023/11/21 01:15:43;;;;;;;28.20;17.40;;;;;;;-128.00;-1.00;-1.00;106919;1250;1014010;-61
2023/11/21 01:18:10;;;;;;;29.80;17.60;;;;;;;-128.00;-1.00;-1.00;106944;1250;1002108;-62
2023/11/21 01:20:38;;;;;;;27.50;14.90;;;;;;;-128.00;-1.00;-1.00;106734;1250;1002860;-61
2023/11/21 01:23:06;;;;;;;27.20;14.30;;;;;;;-128.00;-1.00;-1.00;106886;1250;1002741;-63
2023/11/21 01:25:33;;;;;;;26.80;13.90;;;;;;;-128.00;-1.00;-1.00;106809;1250;1002493;-61
2023/11/21 01:28:01;;;;;;;23.00;13.80;;;;;;;-128.00;-1.00;-1.00;106783;1255;1002159;-64
2023/11/21 01:30:28;;;;;;;24.00;14.00;;;;;;;-128.00;-1.00;-1.00;106927;1250;1002753;-62
2023/11/21 01:32:57;;;;;;;27.80;16.80;;;;;;;-128.00;-1.00;-1.00;106688;1249;1010354;-62
2023/11/21 01:35:24;;;;;;;33.80;16.50;;;;;;;-128.00;-1.00;-1.00;106833;1251;1002526;-63
2023/11/21 01:37:53;;;;;;;35.70;18.40;;;;;;;-128.00;-1.00;-1.00;106961;1250;1002043;-64
2023/11/21 01:40:21;;;;;;;38.30;18.80;;;;;;;-128.00;-1.00;-1.00;106928;1250;1002780;-61
2023/11/21 01:42:48;;;;;;;29.60;17.90;;;;;;;-128.00;-1.00;-1.00;106976;1250;1001781;-62
2023/11/21 01:45:16;;;;;;;23.60;15.00;;;;;;;-128.00;-1.00;-1.00;106979;1250;1003121;-64
2023/11/21 01:47:43;;;;;;;29.40;14.50;;;;;;;-128.00;-1.00;-1.00;106763;1250;1002873;-62
2023/11/21 01:50:14;;;;;;;26.10;15.20;;;;;;;-128.00;-1.00;-1.00;106851;1250;1002572;-63
2023/11/21 01:52:42;;;;;;;32.30;18.30;;;;;;;-128.00;-1.00;-1.00;106733;1250;1012414;-62
2023/11/21 01:55:09;;;;;;;30.10;15.30;;;;;;;-128.00;-1.00;-1.00;106567;1250;1002418;-58
2023/11/21 01:57:40;;;;;;;27.10;16.90;;;;;;;-128.00;-1.00;-1.00;106873;1250;1002304;-63
2023/11/21 02:00:15;;;;;;;26.00;15.90;;;;;;;-128.00;-1.00;-1.00;106842;1250;1012281;-62
2023/11/21 02:02:43;;;;;;;23.60;13.10;;;;;;;-128.00;-1.00;-1.00;106916;1250;1013095;-60
2023/11/21 02:05:14;;;;;;;22.60;15.10;;;;;;;-128.00;-1.00;-1.00;106676;1250;1013289;-62
2023/11/21 02:07:45;;;;;;;26.90;13.70;;;;;;;-128.00;-1.00;-1.00;106958;1250;1012340;-64
2023/11/21 02:10:14;;;;;;;25.80;15.10;;;;;;;-128.00;-1.00;-1.00;106941;1250;1009961;-63
2023/11/21 02:12:42;;;;;;;29.00;15.00;;;;;;;-128.00;-1.00;-1.00;106918;1250;1011565;-61
2023/11/21 02:15:26;;;;;;;31.20;18.10;;;;;;;-128.00;-1.00;-1.00;106951;1250;1002177;-63
2023/11/21 02:17:54;;;;;;;29.10;16.70;;;;;;;-128.00;-1.00;-1.00;106942;1250;1012559;-62
2023/11/21 02:20:24;;;;;;;34.90;18.30;;;;;;;-128.00;-1.00;-1.00;106905;1249;1012848;-65
2023/11/21 02:22:57;;;;;;;52.90;26.00;;;;;;;-128.00;-1.00;-1.00;106878;1250;1010645;-62
2023/11/21 02:25:37;;;;;;;47.00;26.80;;;;;;;-128.00;-1.00;-1.00;106992;1250;1010700;-62
2023/11/21 02:28:06;;;;;;;34.70;20.60;;;;;;;-128.00;-1.00;-1.00;106913;1250;1012728;-62
2023/11/21 02:30:34;;;;;;;35.50;21.20;;;;;;;-128.00;-1.00;-1.00;106909;1257;1012193;-64
2023/11/21 02:33:02;;;;;;;36.80;20.60;;;;;;;-128.00;-1.00;-1.00;106937;1250;1002363;-64
2023/11/21 02:35:31;;;;;;;51.10;24.50;;;;;;;-128.00;-1.00;-1.00;106725;1250;1010057;-62
2023/11/21 02:37:59;;;;;;;42.60;20.20;;;;;;;-128.00;-1.00;-1.00;106965;1250;1011083;-61
2023/11/21 02:40:27;;;;;;;68.20;30.80;;;;;;;-128.00;-1.00;-1.00;106972;1250;1002404;-63
2023/11/21 02:42:55;;;;;;;68.80;33.30;;;;;;;-128.00;-1.00;-1.00;106720;1259;1002267;-64
2023/11/21 02:45:24;;;;;;;65.40;30.30;;;;;;;-128.00;-1.00;-1.00;106968;1250;1002394;-62
2023/11/21 02:47:56;;;;;;;57.20;26.70;;;;;;;-128.00;-1.00;-1.00;106718;1250;1009415;-64
2023/11/21 02:50:25;;;;;;;51.00;26.00;;;;;;;-128.00;-1.00;-1.00;106923;1251;1011016;-62
2023/11/21 02:52:52;;;;;;;47.20;23.60;;;;;;;-128.00;-1.00;-1.00;106901;1251;1002849;-61
2023/11/21 02:55:20;;;;;;;40.10;19.90;;;;;;;-128.00;-1.00;-1.00;106950;1251;1002004;-60
2023/11/21 02:57:48;;;;;;;44.30;21.20;;;;;;;-128.00;-1.00;-1.00;106903;1251;1002461;-64
2023/11/21 03:00:16;;;;;;;40.30;21.30;;;;;;;-128.00;-1.00;-1.00;106972;1252;1001866;-61
2023/11/21 03:02:44;;;;;;;35.90;18.50;;;;;;;-128.00;-1.00;-1.00;106903;1251;1011556;-64
2023/11/21 03:05:12;;;;;;;50.90;23.10;;;;;;;-128.00;-1.00;-1.00;106961;1251;1013211;-63
2023/11/21 03:07:40;;;;;;;51.80;24.60;;;;;;;-128.00;-1.00;-1.00;106857;1253;1003089;-62
2023/11/21 03:10:11;;;;;;;61.50;28.90;;;;;;;-128.00;-1.00;-1.00;106948;1251;1012637;-61
2023/11/21 03:12:39;;;;;;;48.00;23.50;;;;;;;-128.00;-1.00;-1.00;106753;1251;1010906;-60
2023/11/21 03:15:07;;;;;;;49.90;23.10;;;;;;;-128.00;-1.00;-1.00;106781;1251;1003099;-62
2023/11/21 03:17:35;;;;;;;51.80;23.40;;;;;;;-128.00;-1.00;-1.00;106968;1251;1001878;-61
2023/11/21 03:20:04;;;;;;;53.00;26.10;;;;;;;-128.00;-1.00;-1.00;106965;1251;1002517;-62
2023/11/21 03:22:32;;;;;;;48.90;24.40;;;;;;;-128.00;-1.00;-1.00;106961;1250;1013346;-61
2023/11/21 03:25:00;;;;;;;57.80;28.90;;;;;;;-128.00;-1.00;-1.00;106648;1251;1010186;-65
2023/11/21 03:27:28;;;;;;;54.10;28.60;;;;;;;-128.00;-1.00;-1.00;106975;1251;1002608;-64
2023/11/21 03:29:56;;;;;;;106.90;46.50;;;;;;;-128.00;-1.00;-1.00;106731;1253;1002298;-63
2023/11/21 03:32:23;;;;;;;131.00;56.10;;;;;;;-128.00;-1.00;-1.00;106940;1256;1001993;-64
2023/11/21 03:34:58;;;;;;;134.90;58.60;;;;;;;-128.00;-1.00;-1.00;106780;1250;1002367;-62
2023/11/21 03:37:29;;;;;;;132.20;65.00;;;;;;;-128.00;-1.00;-1.00;106947;1251;1010357;-61
2023/11/21 03:39:57;;;;;;;65.80;37.40;;;;;;;-128.00;-1.00;-1.00;106921;1252;1011431;-62
2023/11/21 03:42:26;;;;;;;34.00;20.90;;;;;;;-128.00;-1.00;-1.00;106947;1251;1002316;-62
2023/11/21 03:44:54;;;;;;;37.00;20.90;;;;;;;-128.00;-1.00;-1.00;106953;1251;1012813;-61
2023/11/21 03:47:22;;;;;;;26.00;17.30;;;;;;;-128.00;-1.00;-1.00;106505;1251;1002206;-64
2023/11/21 03:49:49;;;;;;;20.40;13.90;;;;;;;-128.00;-1.00;-1.00;106917;1253;1002375;-61
2023/11/21 03:52:17;;;;;;;31.60;17.00;;;;;;;-128.00;-1.00;-1.00;106994;1250;1002307;-62
2023/11/21 03:54:45;;;;;;;41.20;20.10;;;;;;;-128.00;-1.00;-1.00;106709;1250;1002486;-63
2023/11/21 03:57:12;;;;;;;48.50;22.30;;;;;;;-128.00;-1.00;-1.00;106924;1251;1002384;-62
2023/11/21 03:59:41;;;;;;;49.70;26.00;;;;;;;-128.00;-1.00;-1.00;106925;1251;1002571;-62
2023/11/21 04:02:08;;;;;;;52.40;24.00;;;;;;;-128.00;-1.00;-1.00;106945;1251;1011273;-64
2023/11/21 04:04:36;;;;;;;49.90;25.40;;;;;;;-128.00;-1.00;-1.00;106942;1251;1002122;-61
2023/11/21 04:07:04;;;;;;;37.00;19.20;;;;;;;-128.00;-1.00;-1.00;107008;1251;1002085;-62
2023/11/21 04:09:32;;;;;;;29.40;16.90;;;;;;;-128.00;-1.00;-1.00;106958;1251;1002036;-62
2023/11/21 04:11:59;;;;;;;27.50;16.20;;;;;;;-128.00;-1.00;-1.00;106973;1250;1002797;-62
2023/11/21 04:14:27;;;;;;;28.40;15.80;;;;;;;-128.00;-1.00;-1.00;106976;1252;1002188;-63
2023/11/21 04:16:54;;;;;;;29.60;18.90;;;;;;;-128.00;-1.00;-1.00;106646;1250;1002476;-65
2023/11/21 04:19:22;;;;;;;25.00;15.40;;;;;;;-128.00;-1.00;-1.00;107017;1251;1002361;-61
2023/11/21 04:21:50;;;;;;;30.90;16.60;;;;;;;-128.00;-1.00;-1.00;106912;1257;1002039;-62
2023/11/21 04:24:17;;;;;;;30.20;16.90;;;;;;;-128.00;-1.00;-1.00;106960;1251;1002574;-64
2023/11/21 04:26:45;;;;;;;34.70;16.90;;;;;;;-128.00;-1.00;-1.00;106920;1251;1002282;-64
2023/11/21 04:29:12;;;;;;;27.20;15.10;;;;;;;-128.00;-1.00;-1.00;106964;1250;1002548;-64
2023/11/21 04:31:40;;;;;;;32.40;16.50;;;;;;;-128.00;-1.00;-1.00;106941;1251;1001932;-62
2023/11/21 04:34:08;;;;;;;28.50;16.50;;;;;;;-128.00;-1.00;-1.00;106877;1253;1002303;-62
2023/11/21 04:36:35;;;;;;;27.30;16.20;;;;;;;-128.00;-1.00;-1.00;106992;1250;1002253;-61
2023/11/21 04:39:03;;;;;;;28.90;16.60;;;;;;;-128.00;-1.00;-1.00;106933;1251;1002553;-63
2023/11/21 04:41:31;;;;;;;35.80;19.40;;;;;;;-128.00;-1.00;-1.00;106638;1251;1002630;-63
2023/11/21 04:44:00;;;;;;;50.00;24.20;;;;;;;-128.00;-1.00;-1.00;106939;1251;1013471;-61
2023/11/21 04:46:28;;;;;;;42.20;20.90;;;;;;;-128.00;-1.00;-1.00;106918;1251;1012113;-61
2023/11/21 04:48:56;;;;;;;34.10;18.90;;;;;;;-128.00;-1.00;-1.00;107008;1250;1002324;-62
2023/11/21 04:51:24;;;;;;;42.90;21.80;;;;;;;-128.00;-1.00;-1.00;106901;1251;1002634;-61
2023/11/21 04:53:51;;;;;;;37.40;17.40;;;;;;;-128.00;-1.00;-1.00;106975;1251;1001972;-61
2023/11/21 04:56:19;;;;;;;47.30;23.10;;;;;;;-128.00;-1.00;-1.00;106889;1250;1002335;-61
2023/11/21 04:58:46;;;;;;;47.90;23.90;;;;;;;-128.00;-1.00;-1.00;106983;1251;1003035;-61
2023/11/21 05:01:14;;;;;;;50.20;25.40;;;;;;;-128.00;-1.00;-1.00;106906;1253;1002490;-61
2023/11/21 05:03:41;;;;;;;51.30;25.40;;;;;;;-128.00;-1.00;-1.00;106971;1251;1001972;-59
2023/11/21 05:06:12;;;;;;;49.40;23.40;;;;;;;-128.00;-1.00;-1.00;106998;1251;1002505;-62
2023/11/21 05:08:40;;;;;;;59.80;22.50;;;;;;;-128.00;-1.00;-1.00;106577;1251;1013135;-64
2023/11/21 05:11:07;;;;;;;45.30;23.90;;;;;;;-128.00;-1.00;-1.00;106960;1251;1002906;-61
2023/11/21 05:13:35;;;;;;;28.90;16.50;;;;;;;-128.00;-1.00;-1.00;106565;1254;1001978;-63
2023/11/21 05:16:07;;;;;;;25.30;16.00;;;;;;;-128.00;-1.00;-1.00;106587;1256;1002473;-63
2023/11/21 05:18:34;;;;;;;34.40;18.80;;;;;;;-128.00;-1.00;-1.00;106424;1255;1010338;-62
2023/11/21 05:21:02;;;;;;;44.60;21.10;;;;;;;-128.00;-1.00;-1.00;106405;1255;1002325;-64
2023/11/21 05:23:29;;;;;;;35.50;19.90;;;;;;;-128.00;-1.00;-1.00;106523;1260;1001806;-64
2023/11/21 05:25:57;;;;;;;40.10;18.70;;;;;;;-128.00;-1.00;-1.00;106520;1260;1002580;-61
2023/11/21 05:28:25;;;;;;;41.80;19.40;;;;;;;-128.00;-1.00;-1.00;106400;1255;1002202;-64
2023/11/21 05:30:53;;;;;;;29.40;17.30;;;;;;;-128.00;-1.00;-1.00;106533;1255;1002022;-65
2023/11/21 05:33:40;;;;;;;38.10;21.50;;;;;;;-128.00;-1.00;-1.00;106569;1255;1013709;-61
2023/11/21 05:36:09;;;;;;;43.70;24.90;;;;;;;-128.00;-1.00;-1.00;106600;1255;1002310;-64
2023/11/21 05:38:37;;;;;;;58.80;29.70;;;;;;;-128.00;-1.00;-1.00;106422;1255;1012690;-64
2023/11/21 05:41:05;;;;;;;51.10;27.60;;;;;;;-128.00;-1.00;-1.00;106535;1256;1002315;-63
2023/11/21 05:43:35;;;;;;;67.40;34.30;;;;;;;-128.00;-1.00;-1.00;106572;1256;1002480;-64
2023/11/21 05:46:03;;;;;;;53.80;27.20;;;;;;;-128.00;-1.00;-1.00;106860;1253;1013230;-61
2023/11/21 05:48:31;;;;;;;50.80;26.30;;;;;;;-128.00;-1.00;-1.00;106626;1250;1002406;-63
2023/11/21 05:50:58;;;;;;;45.50;24.80;;;;;;;-128.00;-1.00;-1.00;106909;1251;1002406;-66
2023/11/21 05:53:26;;;;;;;38.10;19.60;;;;;;;-128.00;-1.00;-1.00;106925;1251;1002991;-64
2023/11/21 05:55:53;;;;;;;36.80;20.20;;;;;;;-128.00;-1.00;-1.00;106895;1251;1002401;-59
2023/11/21 05:58:21;;;;;;;37.10;20.50;;;;;;;-128.00;-1.00;-1.00;106951;1251;1002103;-61
2023/11/21 06:00:49;;;;;;;39.50;20.90;;;;;;;-128.00;-1.00;-1.00;106904;1251;1001941;-61
2023/11/21 06:03:17;;;;;;;38.10;18.80;;;;;;;-128.00;-1.00;-1.00;107002;1251;1002726;-62
2023/11/21 06:05:45;;;;;;;46.80;20.80;;;;;;;-128.00;-1.00;-1.00;106882;1251;1010750;-60
2023/11/21 06:08:12;;;;;;;44.30;22.80;;;;;;;-128.00;-1.00;-1.00;106899;1251;1003103;-60
2023/11/21 06:10:40;;;;;;;49.70;25.10;;;;;;;-128.00;-1.00;-1.00;106810;1251;1003156;-62
2023/11/21 06:13:08;;;;;;;48.50;25.40;;;;;;;-128.00;-1.00;-1.00;106927;1251;1002425;-62
2023/11/21 06:15:35;;;;;;;42.50;21.50;;;;;;;-128.00;-1.00;-1.00;106940;1251;1002223;-63
2023/11/21 06:18:03;;;;;;;55.50;27.00;;;;;;;-128.00;-1.00;-1.00;106887;1251;1002082;-63
2023/11/21 06:20:30;;;;;;;58.30;27.90;;;;;;;-128.00;-1.00;-1.00;106954;1251;1002806;-64
2023/11/21 06:22:58;;;;;;;70.10;32.10;;;;;;;-128.00;-1.00;-1.00;106911;1251;1002678;-62
2023/11/21 06:25:25;;;;;;;48.00;25.80;;;;;;;-128.00;-1.00;-1.00;106888;1251;1002299;-64
2023/11/21 06:27:53;;;;;;;41.60;22.20;;;;;;;-128.00;-1.00;-1.00;106910;1252;1002852;-65
2023/11/21 06:30:21;;;;;;;31.90;17.90;;;;;;;-128.00;-1.00;-1.00;106647;1251;1001913;-62
2023/11/21 06:32:50;;;;;;;37.50;22.30;;;;;;;-128.00;-1.00;-1.00;106923;1253;1002228;-61
2023/11/21 06:35:18;;;;;;;51.20;24.80;;;;;;;-128.00;-1.00;-1.00;106531;1251;1013300;-64
2023/11/21 06:37:49;;;;;;;41.10;21.10;;;;;;;-128.00;-1.00;-1.00;106553;1251;1002245;-63
2023/11/21 06:40:19;;;;;;;36.40;20.90;;;;;;;-128.00;-1.00;-1.00;106909;1251;1012302;-62
2023/11/21 06:42:47;;;;;;;42.80;21.50;;;;;;;-128.00;-1.00;-1.00;106796;1251;1009388;-61
2023/11/21 06:45:16;;;;;;;49.80;24.40;;;;;;;-128.00;-1.00;-1.00;106893;1255;1002202;-61
2023/11/21 06:47:43;;;;;;;;;;;;;;;-128.00;-1.00;-1.00;106914;1251;1012601;-61
2023/11/21 06:50:11;;;;;;;37.10;18.20;;;;;;;-128.00;-1.00;-1.00;106959;1252;1002188;-64
2023/11/21 06:52:39;;;;;;;37.10;19.30;;;;;;;-128.00;-1.00;-1.00;106887;1251;1002404;-61
2023/11/21 06:55:08;;;;;;;54.10;27.10;;;;;;;-128.00;-1.00;-1.00;106897;1251;1002496;-65
2023/11/21 06:57:38;;;;;;;144.70;58.50;;;;;;;-128.00;-1.00;-1.00;106925;1251;1011244;-62
2023/11/21 07:00:08;;;;;;;122.70;56.30;;;;;;;-128.00;-1.00;-1.00;106978;1251;1013556;-62
2023/11/21 07:02:37;;;;;;;65.70;30.60;;;;;;;-128.00;-1.00;-1.00;106915;1251;1013237;-62
2023/11/21 07:05:05;;;;;;;82.60;38.60;;;;;;;-128.00;-1.00;-1.00;106941;1251;1012145;-62
2023/11/21 07:07:35;;;;;;;52.70;29.60;;;;;;;-128.00;-1.00;-1.00;106556;1253;1009741;-62
2023/11/21 07:10:04;;;;;;;61.00;27.60;;;;;;;-128.00;-1.00;-1.00;106886;1254;1011514;-62
2023/11/21 07:12:31;;;;;;;77.60;33.70;;;;;;;-128.00;-1.00;-1.00;106996;1251;1013171;-62
2023/11/21 07:14:59;;;;;;;132.50;49.90;;;;;;;-128.00;-1.00;-1.00;106892;1251;1002302;-62
2023/11/21 07:17:26;;;;;;;117.80;48.90;;;;;;;-128.00;-1.00;-1.00;106732;1251;1002366;-66
2023/11/21 07:19:55;;;;;;;77.50;35.90;;;;;;;-128.00;-1.00;-1.00;106617;1251;1001494;-64
2023/11/21 07:22:22;;;;;;;55.20;24.40;;;;;;;-128.00;-1.00;-1.00;106934;1251;1010422;-61
2023/11/21 07:24:53;;;;;;;66.70;31.80;;;;;;;-128.00;-1.00;-1.00;106685;1251;1002137;-63
2023/11/21 07:27:20;;;;;;;97.50;46.20;;;;;;;-128.00;-1.00;-1.00;106965;1251;1012845;-64
2023/11/21 07:29:48;;;;;;;99.70;46.30;;;;;;;-128.00;-1.00;-1.00;106938;1251;1002589;-60
2023/11/21 07:32:16;;;;;;;53.60;28.60;;;;;;;-128.00;-1.00;-1.00;106916;1251;1002235;-63
2023/11/21 07:34:43;;;;;;;78.50;38.60;;;;;;;-128.00;-1.00;-1.00;106969;1251;1002602;-63
2023/11/21 07:37:11;;;;;;;117.10;50.80;;;;;;;-128.00;-1.00;-1.00;106900;1253;1002341;-63
2023/11/21 07:39:41;;;;;;;63.90;28.30;;;;;;;-128.00;-1.00;-1.00;106912;1251;1002512;-65
2023/11/21 07:42:10;;;;;;;64.20;33.30;;;;;;;-128.00;-1.00;-1.00;106935;1251;1013174;-63
2023/11/21 07:44:38;;;;;;;58.40;31.10;;;;;;;-128.00;-1.00;-1.00;106652;1254;1010161;-64
2023/11/21 07:47:05;;;;;;;57.80;30.10;;;;;;;-128.00;-1.00;-1.00;106669;1252;1001949;-65
2023/11/21 07:49:33;;;;;;;53.20;29.00;;;;;;;-128.00;-1.00;-1.00;107027;1251;1002488;-65
2023/11/21 07:52:01;;;;;;;59.60;31.50;;;;;;;-128.00;-1.00;-1.00;106773;1250;1002337;-65
2023/11/21 07:54:28;;;;;;;58.60;31.20;;;;;;;-128.00;-1.00;-1.00;106856;1250;1002401;-65
2023/11/21 07:56:56;;;;;;;51.90;30.40;;;;;;;-128.00;-1.00;-1.00;106919;1251;1002122;-64
2023/11/21 07:59:23;;;;;;;51.00;26.00;;;;;;;-128.00;-1.00;-1.00;107130;1251;1002049;-64
2023/11/21 08:01:51;;;;;;;53.00;29.20;;;;;;;-128.00;-1.00;-1.00;107052;1251;1002181;-61
2023/11/21 08:04:18;;;;;;;68.30;34.10;;;;;;;-128.00;-1.00;-1.00;106827;1256;1002704;-64
2023/11/21 08:06:46;;;;;;;67.50;36.50;;;;;;;-128.00;-1.00;-1.00;107078;1249;1002440;-61
2023/11/21 08:09:15;;;;;;;77.40;42.30;;;;;;;-128.00;-1.00;-1.00;107039;1250;1001856;-63
2023/11/21 08:11:43;;;;;;;88.70;46.90;;;;;;;-128.00;-1.00;-1.00;107045;1251;1010892;-62
2023/11/21 08:14:10;;;;;;;71.70;40.50;;;;;;;-128.00;-1.00;-1.00;106854;1250;1002475;-64
2023/11/21 08:16:38;;;;;;;65.60;32.90;;;;;;;-128.00;-1.00;-1.00;107014;1249;1002107;-62
2023/11/21 08:19:06;;;;;;;54.50;29.10;;;;;;;-128.00;-1.00;-1.00;107080;1250;1002590;-61
2023/11/21 08:21:33;;;;;;;69.00;32.20;;;;;;;-128.00;-1.00;-1.00;107099;1251;1002645;-66
2023/11/21 08:24:02;;;;;;;91.00;42.20;;;;;;;-128.00;-1.00;-1.00;107046;1251;1003831;-61
2023/11/21 08:26:29;;;;;;;88.90;42.60;;;;;;;-128.00;-1.00;-1.00;107053;1254;1012916;-61
2023/11/21 08:28:57;;;;;;;42.20;25.30;;;;;;;-128.00;-1.00;-1.00;107052;1250;1004226;-62
2023/11/21 08:31:27;;;;;;;39.60;19.70;;;;;;;-128.00;-1.00;-1.00;106978;1250;1001782;-62
2023/11/21 08:33:55;;;;;;;26.50;17.60;;;;;;;-128.00;-1.00;-1.00;106748;1249;1010455;-63
2023/11/21 08:36:24;;;;;;;36.50;21.10;;;;;;;-128.00;-1.00;-1.00;107052;1251;1011811;-62
2023/11/21 08:38:54;;;;;;;30.40;21.90;;;;;;;-128.00;-1.00;-1.00;107111;1249;1013541;-60
2023/11/21 08:41:22;;;;;;;38.90;20.70;;;;;;;-128.00;-1.00;-1.00;106967;1251;1012748;-60
2023/11/21 08:43:50;;;;;;;33.90;19.60;;;;;;;-128.00;-1.00;-1.00;107065;1249;1002660;-62
2023/11/21 08:46:18;;;;;;;;;;;;;;;-128.00;-1.00;-1.00;106805;1251;1011169;-65
2023/11/21 08:48:46;;;;;;;40.00;24.00;;;;;;;-128.00;-1.00;-1.00;107080;1251;1010785;-65
2023/11/21 08:51:14;;;;;;;36.50;19.60;;;;;;;-128.00;-1.00;-1.00;106949;1251;1002226;-66
2023/11/21 08:53:41;;;;;;;32.20;20.00;;;;;;;-128.00;-1.00;-1.00;106899;1251;1003041;-66
2023/11/21 08:56:14;;;;;;;33.90;21.20;;;;;;;-128.00;-1.00;-1.00;106886;1251;1002509;-63
2023/11/21 08:58:41;;;;;;;33.60;19.10;;;;;;;-128.00;-1.00;-1.00;106915;1251;1009853;-65
2023/11/21 09:01:09;;;;;;;31.20;18.40;;;;;;;-128.00;-1.00;-1.00;106708;1251;1002472;-65
2023/11/21 09:03:37;;;;;;;59.20;31.10;;;;;;;-128.00;-1.00;-1.00;106924;1251;1002257;-64
2023/11/21 09:06:05;;;;;;;47.20;26.70;;;;;;;-128.00;-1.00;-1.00;106903;1253;1002222;-65
2023/11/21 09:08:32;;;;;;;35.00;18.90;;;;;;;-128.00;-1.00;-1.00;106965;1251;1002631;-64
2023/11/21 09:11:00;;;;;;;40.70;23.60;;;;;;;-128.00;-1.00;-1.00;106895;1251;1002231;-63
2023/11/21 09:13:29;;;;;;;41.80;23.20;;;;;;;-128.00;-1.00;-1.00;106908;1251;1002869;-65
2023/11/21 09:15:57;;;;;;;36.40;19.00;;;;;;;-128.00;-1.00;-1.00;106897;1251;1013159;-65
2023/11/21 09:18:24;;;;;;;37.10;23.80;;;;;;;-128.00;-1.00;-1.00;106887;1251;1002519;-66
2023/11/21 09:20:52;;;;;;;44.40;24.70;;;;;;;-128.00;-1.00;-1.00;106890;1251;1002327;-62
2023/11/21 09:23:20;;;;;;;52.40;31.10;;;;;;;-128.00;-1.00;-1.00;106921;1254;1002883;-64
2023/11/21 09:25:49;;;;;;;35.30;19.30;;;;;;;-128.00;-1.00;-1.00;106913;1251;1002324;-66
2023/11/21 09:28:17;;;;;;;44.30;22.10;;;;;;;-128.00;-1.00;-1.00;106868;1251;1012437;-66
2023/11/21 09:30:45;;;;;;;37.20;21.90;;;;;;;-128.00;-1.00;-1.00;106885;1254;1002243;-64
2023/11/21 09:33:12;;;;;;;42.90;23.50;;;;;;;-128.00;-1.00;-1.00;106893;1251;1003187;-63
2023/11/21 09:35:40;;;;;;;48.90;27.20;;;;;;;-128.00;-1.00;-1.00;106834;1253;1003909;-66
2023/11/21 09:38:11;;;;;;;48.20;26.80;;;;;;;-128.00;-1.00;-1.00;106921;1251;1002415;-65
2023/11/21 09:40:39;;;;;;;45.00;25.80;;;;;;;-128.00;-1.00;-1.00;106910;1251;1012530;-66
2023/11/21 09:43:15;;;;;;;46.60;27.00;;;;;;;-128.00;-1.00;-1.00;106911;1251;1002834;-66
2023/11/21 09:45:48;;;;;;;42.40;25.20;;;;;;;-128.00;-1.00;-1.00;106750;1251;1013380;-65
2023/11/21 09:48:16;;;;;;;59.60;32.00;;;;;;;-128.00;-1.00;-1.00;106901;1251;1009593;-64
2023/11/21 09:50:44;;;;;;;62.40;29.70;;;;;;;-128.00;-1.00;-1.00;106944;1250;1011111;-65
2023/11/21 09:53:20;;;;;;;36.70;19.40;;;;;;;-128.00;-1.00;-1.00;106910;1251;1002948;-64
2023/11/21 09:55:50;;;;;;;35.70;21.00;;;;;;;-128.00;-1.00;-1.00;106910;1249;1013337;-65
2023/11/21 09:58:19;;;;;;;38.90;20.60;;;;;;;-128.00;-1.00;-1.00;106919;1250;1013411;-65
2023/11/21 10:00:47;;;;;;;36.50;22.00;;;;;;;-128.00;-1.00;-1.00;106923;1250;1002418;-65
2023/11/21 10:03:15;;;;;;;41.10;20.40;;;;;;;-128.00;-1.00;-1.00;106916;1249;1011706;-64
2023/11/21 10:05:44;;;;;;;47.50;23.80;;;;;;;-128.00;-1.00;-1.00;106919;1250;1002455;-65
2023/11/21 10:08:12;;;;;;;54.30;26.60;;;;;;;-128.00;-1.00;-1.00;106909;1250;1011802;-65
2023/11/21 10:10:44;;;;;;;32.00;20.10;;;;;;;-128.00;-1.00;-1.00;106997;1250;1002177;-64
2023/11/21 10:13:16;;;;;;;92.30;37.40;;;;;;;-128.00;-1.00;-1.00;106946;1250;1010661;-66
2023/11/21 10:15:49;;;;;;;60.70;30.80;;;;;;;-128.00;-1.00;-1.00;106983;1250;1010824;-64
2023/11/21 10:18:17;;;;;;;47.60;24.80;;;;;;;-128.00;-1.00;-1.00;106907;1250;1012869;-62
2023/11/21 10:20:51;;;;;;;46.60;25.20;;;;;;;-128.00;-1.00;-1.00;106978;1252;1003143;-64
2023/11/21 10:23:22;;;;;;;44.80;23.90;;;;;;;-128.00;-1.00;-1.00;106869;1249;1013283;-63
2023/11/21 10:25:52;;;;;;;53.30;29.10;;;;;;;-128.00;-1.00;-1.00;106852;1251;1010858;-62
2023/11/21 10:28:20;;;;;;;40.10;22.40;;;;;;;-128.00;-1.00;-1.00;106873;1249;1011318;-62
2023/11/21 10:30:49;;;;;;;44.70;22.00;;;;;;;-128.00;-1.00;-1.00;106911;1250;1013514;-62
2023/11/21 10:33:16;;;;;;;38.30;22.70;;;;;;;-128.00;-1.00;-1.00;106756;1250;1003825;-62
2023/11/21 10:35:51;;;;;;;36.80;22.50;;;;;;;-128.00;-1.00;-1.00;106945;1249;1004148;-65
2023/11/21 10:38:21;;;;;;;42.40;23.80;;;;;;;-128.00;-1.00;-1.00;106914;1250;1010495;-63
2023/11/21 10:40:49;;;;;;;46.00;25.60;;;;;;;-128.00;-1.00;-1.00;106928;1250;1011120;-61
2023/11/21 10:43:17;;;;;;;52.10;28.30;;;;;;;-128.00;-1.00;-1.00;106960;1251;1013699;-63
2023/11/21 10:45:45;;;;;;;63.60;31.40;;;;;;;-128.00;-1.00;-1.00;106830;1250;1013141;-65
2023/11/21 10:48:16;;;;;;;41.00;20.70;;;;;;;-128.00;-1.00;-1.00;106910;1250;1004791;-62
2023/11/21 10:50:45;;;;;;;36.30;21.80;;;;;;;-128.00;-1.00;-1.00;106951;1254;1011267;-65
2023/11/21 10:53:13;;;;;;;;;;;;;;;-128.00;-1.00;-1.00;106616;1250;1011126;-65
2023/11/21 10:55:41;;;;;;;33.10;19.60;;;;;;;-128.00;-1.00;-1.00;106899;1249;1002758;-64
2023/11/21 10:58:10;;;;;;;29.20;18.20;;;;;;;-128.00;-1.00;-1.00;106734;1254;1012309;-65
2023/11/21 11:00:39;;;;;;;26.80;16.10;;;;;;;-128.00;-1.00;-1.00;106800;1251;1013496;-65
2023/11/21 11:03:13;;;;;;;40.50;23.20;;;;;;;-128.00;-1.00;-1.00;106909;1251;1010023;-65
2023/11/21 11:05:51;;;;;;;28.90;19.80;;;;;;;-128.00;-1.00;-1.00;106844;1254;1012379;-65
2023/11/21 11:08:26;;;;;;;30.60;17.50;;;;;;;-128.00;-1.00;-1.00;106899;1250;1012941;-64